Flight Track Log - Related Links

Times and Time Zones

All times are in EDT time to prevent confusion due to time zone crossing. See the ASQ6041 flight status page for this flight to view local times or setup timezone preferences in your user account.

Time Position Orientation Groundspeed Altitude Reporting Facility
EDT Latitude Longitude Course Direction KTS MPH feet Rate Location/Type
Sat 01:10:12 PM 39.8411 -104.7603 249° West 169 194 7,000  Level Denver Center
Sat 01:11:14 PM 39.8192 -104.8353 249° West 219 252 9,200 1,887 Climbing Denver Center
Sat 01:12:16 PM 39.7942 -104.9258 250° West 249 287 10,900 1,597 Climbing Denver Center
Sat 01:13:18 PM 39.7678 -105.0250 251° West 288 331 12,500 1,872 Climbing Denver Center
Sat 01:14:21 PM 39.7272 -105.1364 245° Southwest 314 361 14,800 2,016 Climbing Denver Center
Sat 01:15:23 PM 39.6900 -105.2397 245° Southwest 314 361 16,700 1,645 Climbing Denver Center
Sat 01:16:25 PM 39.6475 -105.3578 245° Southwest 337 388 18,200 1,548 Climbing Denver Center
Sat 01:17:27 PM 39.6086 -105.4678 245° Southwest 338 389 19,900 1,742 Climbing Denver Center
Sat 01:18:29 PM 39.5633 -105.5881 244° Southwest 345 397 21,800 1,742 Climbing Denver Center
Sat 01:19:31 PM 39.5283 -105.7017 248° West 339 390 23,500 1,597 Climbing Denver Center
Sat 01:20:33 PM 39.4997 -105.8083 251° West 339 390 25,100 1,210 Climbing Denver Center
Sat 01:21:35 PM 39.4633 -105.9467 251° West 345 397 26,000 435 Climbing Denver Center
Sat 01:22:37 PM 39.4264 -106.0758 250° West 387 445 26,000  Level Denver Center
Sat 01:23:39 PM 39.3936 -106.1806 248° West 398 458 26,000  Level Denver Center
Sat 01:24:41 PM 39.2697 -106.3011 217° Southwest 427 491 26,000 -290 Level Denver Center
Sat 01:25:43 PM 39.1747 -106.3883 215° Southwest 432 497 25,400 -1,839 Descending Denver Center
Sat 01:26:45 PM 39.0628 -106.4881 215° Southwest 435 501 22,200 -2,880 Descending Denver Center
Sat 01:27:48 PM 38.9828 -106.5611 215° Southwest 419 482 19,400 -2,448 Descending Denver Center
Sat 01:28:50 PM 38.8769 -106.6572 215° Southwest 397 457 17,100 -1,500 Descending Denver Center
Sat 01:29:52 PM 38.7989 -106.6964 201° Southwest 316 364 16,300 -435 Descending Denver Center
Sat 01:30:54 PM 38.7311 -106.7297 201° Southwest 272 313 16,200 -97 Descending Denver Center

Login

Don't have an account? Register now (free) for customized features, flight alerts, and more!